Time;durP1;ratioP1;P1;durP2;ratioP2;P2;SDS_P1;SDS_P2;PMS_P1;PMS_P2;Temp;Humidity;BMP_temperature;BMP_pressure;BME280_temperature;BME280_humidity;BME280_pressure;Samples;Min_cycle;Max_cycle;Signal;HPM_P1;HPM_P2
2022/01/15 00:00:59;;;;;;;34.58;13.60;;;0.10;99.90;;;;;;5034300;28;20033;-74
2022/01/15 00:03:25;;;;;;;45.13;18.70;;;0.10;99.90;;;;;;5052594;28;20028;-74
2022/01/15 00:05:51;;;;;;;37.58;13.75;;;0.10;99.90;;;;;;5034482;28;20036;-74
2022/01/15 00:08:17;;;;;;;35.00;12.63;;;0.10;99.90;;;;;;5034311;28;20025;-75
2022/01/15 00:10:42;;;;;;;29.67;11.88;;;0.10;99.90;;;;;;5052198;28;20400;-74
2022/01/15 00:13:13;;;;;;;38.03;15.60;;;0.00;99.90;;;;;;5051929;28;20021;-74
2022/01/15 00:15:47;;;;;;;40.10;16.35;;;0.00;99.90;;;;;;5020953;28;20111;-74
2022/01/15 00:18:15;;;;;;;28.88;12.48;;;0.00;99.90;;;;;;5052253;28;20033;-74
2022/01/15 00:20:41;;;;;;;37.95;15.40;;;0.00;99.90;;;;;;5036556;28;20052;-74
2022/01/15 00:23:07;;;;;;;37.25;16.52;;;-0.10;99.90;;;;;;5032438;28;20052;-74
2022/01/15 00:25:33;;;;;;;28.25;11.50;;;-0.10;99.90;;;;;;5032318;28;20029;-74
2022/01/15 00:28:00;;;;;;;28.38;12.40;;;-0.10;99.90;;;;;;5032356;28;20483;-74
2022/01/15 00:30:26;;;;;;;27.85;11.60;;;-0.10;99.90;;;;;;5032261;28;20021;-74
2022/01/15 00:32:52;;;;;;;32.58;12.27;;;-0.20;99.90;;;;;;5040974;28;20021;-74
2022/01/15 00:35:19;;;;;;;28.25;11.10;;;-0.10;99.90;;;;;;5052109;28;20029;-74
2022/01/15 00:37:45;;;;;;;24.50;12.23;;;-0.10;99.90;;;;;;5051885;28;20040;-74
2022/01/15 00:40:14;;;;;;;27.35;11.88;;;-0.10;99.90;;;;;;5051967;28;20065;-74
2022/01/15 00:42:40;;;;;;;32.85;12.57;;;-0.10;99.90;;;;;;5051935;28;20032;-74
2022/01/15 00:45:11;;;;;;;29.17;12.73;;;-0.20;99.90;;;;;;5050570;28;20029;-74
2022/01/15 00:47:37;;;;;;;36.20;15.55;;;-0.20;99.90;;;;;;5034072;28;20036;-74
2022/01/15 00:50:05;;;;;;;41.42;17.50;;;-0.20;99.90;;;;;;5024289;28;20439;-74
2022/01/15 00:52:31;;;;;;;32.25;14.65;;;-0.20;99.90;;;;;;5051720;28;20363;-74
2022/01/15 00:54:57;;;;;;;28.92;13.40;;;-0.30;99.90;;;;;;5031509;28;20025;-74
2022/01/15 00:57:23;;;;;;;31.40;14.05;;;-0.30;99.90;;;;;;5031736;28;20039;-74
2022/01/15 00:59:49;;;;;;;33.88;14.82;;;-0.30;99.90;;;;;;5015981;28;20124;-74
2022/01/15 01:02:15;;;;;;;31.88;14.05;;;-0.30;99.90;;;;;;5051643;28;20013;-74
2022/01/15 01:04:40;;;;;;;31.73;11.40;;;-0.30;99.90;;;;;;5033550;28;20023;-74
2022/01/15 01:07:06;;;;;;;31.73;12.60;;;-0.30;99.90;;;;;;5051583;28;20021;-74
2022/01/15 01:20:39;;;;;;;32.78;12.25;;;-0.30;99.90;;;;;;5031719;28;20036;-74
2022/01/15 01:23:05;;;;;;;26.60;13.63;;;-0.30;99.90;;;;;;5031434;28;20029;-74
2022/01/15 01:25:42;;;;;;;31.35;11.80;;;-0.30;99.90;;;;;;5031307;28;20034;-75
2022/01/15 01:28:13;;;;;;;28.80;12.65;;;-0.30;99.90;;;;;;5013686;28;20025;-74
2022/01/15 01:30:47;;;;;;;25.60;11.18;;;-0.30;99.90;;;;;;5031339;28;20087;-74
2022/01/15 01:35:48;;;;;;;31.17;11.88;;;-0.30;99.90;;;;;;5031526;28;20033;-74
2022/01/15 01:38:27;;;;;;;24.85;10.52;;;-0.30;99.90;;;;;;5031212;28;20029;-75
2022/01/15 01:40:52;;;;;;;34.15;12.35;;;-0.30;99.90;;;;;;5031454;28;20053;-74
2022/01/15 01:45:53;;;;;;;23.77;11.30;;;-0.30;99.90;;;;;;5051353;28;20059;-74
2022/01/15 01:48:18;;;;;;;25.45;10.95;;;-0.30;99.90;;;;;;5051320;28;20021;-74
2022/01/15 01:50:44;;;;;;;29.98;11.88;;;-0.30;99.90;;;;;;5050996;28;20041;-74
2022/01/15 01:53:10;;;;;;;31.13;11.50;;;-0.20;99.90;;;;;;5051103;28;20475;-74
2022/01/15 01:55:36;;;;;;;34.22;11.07;;;-0.20;99.90;;;;;;5032966;28;20025;-74
2022/01/15 01:58:02;;;;;;;33.15;12.48;;;-0.30;99.90;;;;;;5050927;28;20048;-74
2022/01/15 02:00:30;;;;;;;29.20;14.85;;;-0.30;99.90;;;;;;5050889;28;20029;-74
2022/01/15 02:02:56;;;;;;;32.63;12.48;;;-0.20;99.90;;;;;;5033014;28;20552;-74
2022/01/15 02:05:23;;;;;;;40.00;13.88;;;-0.30;99.90;;;;;;5051310;28;20096;-74
2022/01/15 02:07:49;;;;;;;30.52;13.18;;;-0.30;99.90;;;;;;5070162;28;20434;-74
2022/01/15 02:10:17;;;;;;;30.10;12.13;;;-0.30;99.90;;;;;;5070199;28;20147;-74
2022/01/15 02:12:45;;;;;;;33.08;11.90;;;-0.30;99.90;;;;;;5054743;28;20017;-74
2022/01/15 02:15:19;;;;;;;26.52;10.63;;;-0.30;99.90;;;;;;5036781;28;20025;-74
2022/01/15 02:17:46;;;;;;;31.13;11.98;;;-0.40;99.90;;;;;;5054538;28;20029;-74
2022/01/15 02:25:47;;;;;;;28.70;12.35;;;-0.40;99.90;;;;;;5054786;28;20389;-74
2022/01/15 02:28:13;;;;;;;29.17;13.32;;;-0.40;99.90;;;;;;5054564;28;20450;-74
2022/01/15 02:30:39;;;;;;;30.33;13.73;;;-0.40;99.90;;;;;;5036562;28;20111;-74
2022/01/15 02:33:06;;;;;;;27.55;12.82;;;-0.40;99.90;;;;;;5054276;28;20096;-74
2022/01/15 02:35:32;;;;;;;32.80;11.55;;;-0.50;99.90;;;;;;5054268;28;20021;-74
2022/01/15 02:38:05;;;;;;;25.55;11.63;;;-0.50;99.90;;;;;;5036516;28;20029;-74
2022/01/15 02:40:35;;;;;;;70.20;24.83;;;-0.50;99.90;;;;;;5054226;28;20486;-74
2022/01/15 02:43:06;;;;;;;43.92;17.77;;;-0.60;99.90;;;;;;5054243;28;20033;-74
2022/01/15 02:45:33;;;;;;;38.13;13.35;;;-0.60;99.90;;;;;;5054146;28;20017;-74
2022/01/15 02:48:09;;;;;;;39.78;14.93;;;-0.60;99.90;;;;;;5054053;28;20124;-74
2022/01/15 02:50:35;;;;;;;31.60;13.52;;;-0.60;99.90;;;;;;5036136;28;20500;-75
2022/01/15 02:53:02;;;;;;;24.30;11.65;;;-0.70;99.90;;;;;;5054072;28;20104;-74
2022/01/15 02:55:27;;;;;;;31.55;13.23;;;-0.70;99.90;;;;;;5036326;28;20068;-74
2022/01/15 02:57:53;;;;;;;33.35;12.32;;;-0.70;99.90;;;;;;5035942;28;20127;-74
2022/01/15 03:00:18;;;;;;;27.48;11.45;;;-0.70;99.90;;;;;;5053900;28;20031;-74
2022/01/15 03:02:44;;;;;;;26.73;12.13;;;-0.70;99.90;;;;;;5053944;28;20423;-75
2022/01/15 03:05:10;;;;;;;26.92;11.68;;;-0.70;99.90;;;;;;5053896;28;20021;-74
2022/01/15 03:07:36;;;;;;;32.90;13.30;;;-0.70;99.90;;;;;;5053772;28;20021;-74
2022/01/15 03:10:04;;;;;;;31.63;11.27;;;-0.70;99.90;;;;;;5035726;28;20568;-74
2022/01/15 03:12:29;;;;;;;25.80;10.57;;;-0.70;99.90;;;;;;5035669;28;20040;-75
2022/01/15 03:15:00;;;;;;;36.28;12.10;;;-0.70;99.90;;;;;;5053553;28;20029;-74
2022/01/15 03:17:25;;;;;;;32.22;12.85;;;-0.70;99.90;;;;;;5052726;28;20453;-74
2022/01/15 03:19:51;;;;;;;25.80;11.07;;;-0.70;99.90;;;;;;5053399;28;20029;-74
2022/01/15 03:22:16;;;;;;;23.90;11.43;;;-0.70;99.90;;;;;;5035972;28;20028;-74
2022/01/15 03:24:42;;;;;;;28.98;10.27;;;-0.80;99.90;;;;;;5052994;28;20036;-74
2022/01/15 03:27:08;;;;;;;35.83;11.32;;;-0.80;99.90;;;;;;5053958;28;20020;-74
2022/01/15 03:29:33;;;;;;;31.98;10.63;;;-0.80;99.90;;;;;;5035384;28;20053;-74
2022/01/15 03:31:59;;;;;;;25.27;10.73;;;-0.70;99.90;;;;;;5053918;28;20445;-74
2022/01/15 03:34:25;;;;;;;27.10;9.80;;;-0.80;99.90;;;;;;5053268;28;20502;-74
2022/01/15 03:36:50;;;;;;;25.17;11.50;;;-0.80;99.90;;;;;;5035339;28;20074;-74
2022/01/15 03:39:16;;;;;;;25.35;12.70;;;-0.80;99.90;;;;;;5068550;28;20037;-74
2022/01/15 03:41:42;;;;;;;28.55;10.85;;;-0.80;99.90;;;;;;5053380;28;20013;-74
2022/01/15 03:44:07;;;;;;;34.80;11.73;;;-0.80;99.90;;;;;;5035122;28;20071;-74
2022/01/15 03:46:33;;;;;;;24.98;11.75;;;-0.90;99.90;;;;;;5035114;28;20534;-74
2022/01/15 03:48:58;;;;;;;30.35;10.35;;;-0.80;99.90;;;;;;5052999;28;20035;-74
2022/01/15 03:51:24;;;;;;;28.88;9.13;;;-0.80;99.90;;;;;;5052979;28;20029;-74
2022/01/15 03:53:50;;;;;;;28.15;8.98;;;-0.90;99.90;;;;;;5052847;28;20025;-75
2022/01/15 03:56:15;;;;;;;22.70;9.15;;;-0.90;99.90;;;;;;5052702;28;20060;-74
2022/01/15 03:58:41;;;;;;;22.70;8.18;;;-0.90;99.90;;;;;;5052791;28;20052;-74
2022/01/15 04:01:06;;;;;;;20.75;8.95;;;-0.90;99.90;;;;;;5034828;28;20027;-74
2022/01/15 04:03:32;;;;;;;30.13;8.98;;;-0.90;99.90;;;;;;5034731;28;20066;-74
2022/01/15 04:05:58;;;;;;;26.90;11.15;;;-1.00;99.90;;;;;;5034747;28;20047;-74
2022/01/15 04:08:23;;;;;;;20.95;9.38;;;-1.00;99.90;;;;;;5050090;28;20014;-74
2022/01/15 04:10:49;;;;;;;18.38;8.10;;;-1.00;99.90;;;;;;5047482;28;20095;-74
2022/01/15 04:13:15;;;;;;;23.65;8.88;;;-1.00;99.90;;;;;;5029721;28;20025;-74
2022/01/15 04:15:42;;;;;;;25.02;9.25;;;-1.00;99.90;;;;;;5032497;28;20482;-74
2022/01/15 04:18:08;;;;;;;18.75;9.25;;;-1.10;99.90;;;;;;5032479;28;20294;-74
2022/01/15 04:20:34;;;;;;;75.43;28.63;;;-1.00;99.90;;;;;;5032343;28;20398;-74
2022/01/15 04:22:59;;;;;;;535.95;199.93;;;-1.00;99.90;;;;;;5032439;28;20040;-74
2022/01/15 04:25:25;;;;;;;248.00;75.45;;;-1.10;99.90;;;;;;5027305;28;20021;-74
2022/01/15 04:27:51;;;;;;;226.77;67.75;;;-1.10;99.90;;;;;;5052274;28;20017;-74
2022/01/15 04:30:18;;;;;;;140.32;38.28;;;-1.10;99.90;;;;;;5051177;28;20433;-74
2022/01/15 04:32:44;;;;;;;200.15;58.53;;;-1.10;99.90;;;;;;5049938;28;20390;-74
2022/01/15 04:35:10;;;;;;;157.23;50.03;;;-1.10;99.90;;;;;;5039213;28;20029;-74
2022/01/15 04:37:40;;;;;;;120.55;34.63;;;-1.20;99.90;;;;;;5021312;28;20055;-75
2022/01/15 04:40:08;;;;;;;155.40;36.60;;;-1.20;99.90;;;;;;5036702;28;20086;-74
2022/01/15 04:42:34;;;;;;;146.10;40.45;;;-1.20;99.90;;;;;;5037348;28;20112;-74
2022/01/15 04:45:01;;;;;;;283.33;91.00;;;-1.20;99.90;;;;;;5021213;28;20100;-74
2022/01/15 04:47:26;;;;;;;169.15;48.78;;;-1.20;99.90;;;;;;5020375;28;20020;-74
2022/01/15 04:49:54;;;;;;;240.75;59.08;;;-1.20;99.90;;;;;;5039278;28;20018;-74
2022/01/15 04:52:21;;;;;;;128.80;33.28;;;-1.20;99.90;;;;;;5037916;28;20021;-74
2022/01/15 04:54:47;;;;;;;55.03;16.50;;;-1.20;99.90;;;;;;5038978;28;20060;-75
2022/01/15 04:57:12;;;;;;;47.22;16.45;;;-1.20;99.90;;;;;;5044042;28;20057;-74
2022/01/15 04:59:38;;;;;;;326.67;102.38;;;-1.20;99.90;;;;;;5038812;28;20029;-74
2022/01/15 05:02:03;;;;;;;115.80;32.60;;;-1.20;99.90;;;;;;5039167;28;20017;-74
2022/01/15 05:04:29;;;;;;;60.35;17.85;;;-1.20;99.90;;;;;;5039837;28;20387;-74
2022/01/15 05:06:55;;;;;;;32.28;11.68;;;-1.30;99.90;;;;;;5019968;28;20032;-74
2022/01/15 05:09:20;;;;;;;44.33;14.70;;;-1.30;99.90;;;;;;5042100;28;20392;-74
2022/01/15 05:12:10;;;;;;;53.28;22.85;;;-1.30;99.90;;;;;;5041712;28;20148;-75
2022/01/15 05:14:34;;;;;;;326.15;98.57;;;-1.40;99.90;;;;;;5043014;28;20163;-74
2022/01/15 05:17:02;;;;;;;68.50;21.83;;;-1.30;99.90;;;;;;5043327;28;20072;-74
2022/01/15 05:19:28;;;;;;;35.08;12.48;;;-1.40;99.90;;;;;;5037724;28;20040;-74
2022/01/15 05:21:55;;;;;;;24.60;9.82;;;-1.40;99.90;;;;;;5040228;28;20148;-74
2022/01/15 05:24:22;;;;;;;29.67;11.35;;;-1.50;99.90;;;;;;5027302;28;20497;-76
2022/01/15 05:26:48;;;;;;;51.40;16.73;;;-1.50;99.90;;;;;;5041450;28;20096;-76
2022/01/15 05:29:14;;;;;;;157.90;60.17;;;-1.50;99.90;;;;;;5042245;28;20163;-76
2022/01/15 05:31:39;;;;;;;94.97;34.97;;;-1.50;99.90;;;;;;5042659;28;20021;-76
2022/01/15 05:34:05;;;;;;;71.07;21.73;;;-1.50;99.90;;;;;;5037774;28;20107;-76
2022/01/15 05:36:31;;;;;;;34.53;12.98;;;-1.60;99.90;;;;;;5043917;28;20029;-76
2022/01/15 05:38:56;;;;;;;24.65;10.23;;;-1.60;99.90;;;;;;5026354;28;20020;-76
2022/01/15 05:41:22;;;;;;;53.45;15.75;;;-1.60;99.90;;;;;;5040941;28;20383;-76
2022/01/15 05:43:48;;;;;;;39.47;14.90;;;-1.60;99.90;;;;;;5047517;28;20025;-76
2022/01/15 05:46:13;;;;;;;50.08;17.83;;;-1.70;99.90;;;;;;5039977;28;20428;-76
2022/01/15 05:48:40;;;;;;;54.33;17.10;;;-1.70;99.90;;;;;;5063685;28;20037;-76
2022/01/15 05:51:06;;;;;;;38.60;13.68;;;-1.70;99.90;;;;;;5055677;28;20017;-76
2022/01/15 05:53:32;;;;;;;43.60;16.63;;;-1.80;99.90;;;;;;5057670;28;20047;-76
2022/01/15 05:55:57;;;;;;;94.20;34.13;;;-1.70;99.90;;;;;;5040204;28;20519;-76
2022/01/15 05:58:23;;;;;;;182.55;82.68;;;-1.70;99.90;;;;;;5036252;28;20117;-76
2022/01/15 06:00:48;;;;;;;77.75;22.50;;;-1.70;99.90;;;;;;5041085;28;20032;-76
2022/01/15 06:03:14;;;;;;;44.63;17.55;;;-1.70;99.90;;;;;;5039399;28;20021;-76
2022/01/15 06:05:40;;;;;;;42.45;16.90;;;-1.60;99.90;;;;;;5056822;28;20482;-76
2022/01/15 06:08:05;;;;;;;34.22;12.57;;;-1.60;99.90;;;;;;5057522;28;20104;-76
2022/01/15 06:10:31;;;;;;;32.05;14.32;;;-1.60;99.90;;;;;;5057192;28;20028;-76
2022/01/15 06:12:56;;;;;;;31.70;13.50;;;-1.60;99.90;;;;;;5057393;28;20374;-76
2022/01/15 06:15:22;;;;;;;30.45;13.07;;;-1.60;99.90;;;;;;5048470;28;20029;-74
2022/01/15 06:17:47;;;;;;;29.83;12.10;;;-1.60;99.90;;;;;;5019314;28;20026;-74
2022/01/15 06:20:14;;;;;;;23.80;12.02;;;-1.60;99.90;;;;;;5036579;28;20026;-74
2022/01/15 06:22:40;;;;;;;41.80;14.88;;;-1.60;99.90;;;;;;5037414;28;20021;-74
2022/01/15 06:25:06;;;;;;;25.25;10.40;;;-1.70;99.90;;;;;;5019539;28;20506;-74
2022/01/15 06:27:38;;;;;;;34.90;16.58;;;-1.70;99.90;;;;;;5019525;28;20410;-74
2022/01/15 06:30:05;;;;;;;70.72;24.67;;;-1.60;99.90;;;;;;5036933;28;20406;-74
2022/01/15 06:32:36;;;;;;;73.50;26.33;;;-1.60;99.90;;;;;;5037260;28;20536;-74
2022/01/15 06:35:09;;;;;;;30.30;14.65;;;-1.60;99.90;;;;;;5018840;28;20063;-74
2022/01/15 06:37:35;;;;;;;46.67;20.30;;;-1.60;99.90;;;;;;5037077;28;20029;-74
2022/01/15 06:40:01;;;;;;;27.98;12.38;;;-1.60;99.90;;;;;;5027566;28;20115;-74
2022/01/15 06:42:26;;;;;;;28.17;11.57;;;-1.60;99.90;;;;;;5057148;28;20364;-74
2022/01/15 06:44:52;;;;;;;38.55;15.77;;;-1.60;99.90;;;;;;5057228;28;20083;-74
2022/01/15 06:47:17;;;;;;;29.63;13.88;;;-1.60;99.90;;;;;;5057151;28;20025;-74
2022/01/15 06:49:43;;;;;;;21.17;11.73;;;-1.60;99.90;;;;;;5071314;28;20041;-76
2022/01/15 06:52:09;;;;;;;77.25;29.77;;;-1.60;99.90;;;;;;5037172;28;20021;-76
2022/01/15 06:54:34;;;;;;;35.85;14.43;;;-1.60;99.90;;;;;;5035873;28;20067;-76
2022/01/15 06:57:00;;;;;;;44.88;16.92;;;-1.70;99.90;;;;;;5035758;28;20029;-77
2022/01/15 06:59:26;;;;;;;33.80;13.20;;;-1.60;99.90;;;;;;5035688;28;20031;-76
2022/01/15 07:01:52;;;;;;;32.40;13.35;;;-1.60;99.90;;;;;;5053656;28;20024;-76
2022/01/15 07:04:17;;;;;;;37.25;16.17;;;-1.60;99.90;;;;;;5053552;28;20467;-76
2022/01/15 07:06:43;;;;;;;42.10;15.90;;;-1.60;99.90;;;;;;5053627;28;20055;-77
2022/01/15 07:09:09;;;;;;;51.17;16.88;;;-1.60;99.90;;;;;;5051029;28;20021;-76
2022/01/15 07:11:34;;;;;;;35.35;14.82;;;-1.60;99.90;;;;;;5048954;28;20018;-76
2022/01/15 07:14:00;;;;;;;25.20;13.25;;;-1.60;99.90;;;;;;5033531;28;20029;-77
2022/01/15 07:16:25;;;;;;;44.15;17.15;;;-1.50;99.90;;;;;;5045208;28;20030;-76
2022/01/15 07:18:51;;;;;;;30.15;14.05;;;-1.50;99.90;;;;;;5052664;28;20033;-77
2022/01/15 07:21:17;;;;;;;33.40;13.88;;;-1.50;99.90;;;;;;5053218;28;20029;-77
2022/01/15 07:23:42;;;;;;;29.75;15.20;;;-1.50;99.90;;;;;;5035994;28;20483;-76
2022/01/15 07:26:11;;;;;;;42.65;16.52;;;-1.50;99.90;;;;;;5032534;28;20017;-76
2022/01/15 07:28:36;;;;;;;42.13;16.23;;;-1.50;99.90;;;;;;5031177;28;20052;-76
2022/01/15 07:31:02;;;;;;;39.97;16.30;;;-1.40;99.90;;;;;;5013405;28;20014;-76
2022/01/15 07:33:28;;;;;;;37.60;15.43;;;-1.50;99.90;;;;;;5031445;28;20140;-76
2022/01/15 07:35:55;;;;;;;35.20;13.25;;;-1.40;99.90;;;;;;5013321;28;20021;-76
2022/01/15 07:38:21;;;;;;;34.33;14.07;;;-1.40;99.90;;;;;;5025184;28;20566;-77
2022/01/15 07:40:48;;;;;;;35.47;14.90;;;-1.30;99.90;;;;;;5051409;28;20120;-75
2022/01/15 07:43:14;;;;;;;38.03;14.65;;;-1.30;99.90;;;;;;5041188;28;20029;-76
2022/01/15 07:45:39;;;;;;;42.08;16.80;;;-1.30;99.90;;;;;;5039684;28;20033;-76
2022/01/15 07:48:05;;;;;;;30.88;14.43;;;-1.30;99.90;;;;;;5052583;28;20021;-77
2022/01/15 07:50:31;;;;;;;33.75;12.60;;;-1.30;99.90;;;;;;5034494;28;20154;-76
2022/01/15 07:52:58;;;;;;;41.67;14.68;;;-1.30;99.90;;;;;;5052866;28;20497;-76
2022/01/15 07:55:24;;;;;;;33.70;13.55;;;-1.30;99.90;;;;;;5052787;28;20029;-76
2022/01/15 07:57:51;;;;;;;46.10;16.80;;;-1.30;99.90;;;;;;5052440;28;20041;-76
2022/01/15 08:00:18;;;;;;;36.92;14.68;;;-1.30;99.90;;;;;;5052466;28;20028;-76
2022/01/15 08:02:44;;;;;;;35.38;14.38;;;-1.30;99.90;;;;;;5052626;28;20103;-76
2022/01/15 08:05:11;;;;;;;30.98;14.25;;;-1.20;99.90;;;;;;5034067;28;20108;-76
2022/01/15 08:07:37;;;;;;;33.75;13.07;;;-1.20;99.90;;;;;;5052457;28;20025;-76
2022/01/15 08:10:06;;;;;;;32.50;15.27;;;-1.20;99.90;;;;;;5052298;28;20029;-77
2022/01/15 08:12:32;;;;;;;33.53;14.10;;;-1.20;99.90;;;;;;5052389;28;20027;-76
2022/01/15 08:14:57;;;;;;;33.53;13.50;;;-1.10;99.90;;;;;;5025304;28;20025;-77
2022/01/15 08:17:23;;;;;;;39.20;20.67;;;-1.10;99.90;;;;;;5030167;28;20074;-76
2022/01/15 08:19:49;;;;;;;36.42;13.73;;;-1.00;99.90;;;;;;5029715;28;20033;-76
2022/01/15 08:22:14;;;;;;;45.15;16.85;;;-1.00;99.90;;;;;;5030764;28;20018;-76
2022/01/15 08:24:40;;;;;;;29.80;13.70;;;-1.00;99.90;;;;;;5014661;28;20026;-76
2022/01/15 08:27:06;;;;;;;37.22;15.75;;;-1.00;99.90;;;;;;5047595;28;20026;-75
2022/01/15 08:29:32;;;;;;;30.83;12.68;;;-1.00;99.90;;;;;;5032240;28;20570;-76
2022/01/15 08:31:57;;;;;;;21.60;10.13;;;-0.90;99.90;;;;;;5041708;28;20052;-76
2022/01/15 08:34:23;;;;;;;30.70;11.45;;;-0.90;99.90;;;;;;5051476;28;20063;-76
2022/01/15 08:36:50;;;;;;;24.50;10.55;;;-0.80;99.90;;;;;;5032028;28;20061;-76
2022/01/15 08:39:16;;;;;;;27.83;11.10;;;-0.70;99.90;;;;;;5030108;28;20476;-76
2022/01/15 08:41:48;;;;;;;23.70;10.75;;;-0.70;99.90;;;;;;5029413;28;20144;-75
2022/01/15 08:44:19;;;;;;;30.27;11.90;;;-0.50;99.90;;;;;;5011996;28;20032;-76
2022/01/15 08:46:44;;;;;;;22.08;9.02;;;-0.50;99.90;;;;;;5030755;28;20309;-76
2022/01/15 08:49:10;;;;;;;23.35;9.52;;;-0.40;99.90;;;;;;5030813;28;20033;-76
2022/01/15 08:51:37;;;;;;;28.08;12.93;;;-0.30;99.90;;;;;;5029915;28;20048;-76
2022/01/15 08:54:02;;;;;;;39.70;15.65;;;-0.20;99.90;;;;;;5031530;28;20108;-76
2022/01/15 08:56:28;;;;;;;39.90;16.15;;;-0.10;99.90;;;;;;5030149;28;20030;-76
2022/01/15 08:58:54;;;;;;;21.80;8.38;;;-0.10;99.90;;;;;;5029781;28;20029;-76
2022/01/15 09:01:20;;;;;;;17.88;9.13;;;-0.10;99.90;;;;;;5013751;28;20529;-76
2022/01/15 09:03:46;;;;;;;19.75;8.88;;;0.00;99.90;;;;;;5030992;28;20049;-76
2022/01/15 09:06:12;;;;;;;23.55;8.30;;;0.00;99.90;;;;;;5013477;28;20045;-76
2022/01/15 09:08:38;;;;;;;21.27;8.30;;;0.10;99.90;;;;;;5031143;28;20483;-76
2022/01/15 09:11:04;;;;;;;20.90;7.97;;;0.10;99.90;;;;;;5031506;28;20041;-76
2022/01/15 09:13:29;;;;;;;31.95;9.15;;;0.20;99.90;;;;;;5013639;28;20087;-76
2022/01/15 09:15:55;;;;;;;16.13;7.07;;;0.30;99.90;;;;;;5029256;28;20491;-74
2022/01/15 09:18:24;;;;;;;11.25;6.68;;;0.30;99.90;;;;;;5032001;28;20045;-74
2022/01/15 09:20:50;;;;;;;14.65;6.82;;;0.30;99.90;;;;;;5029835;28;20044;-75
2022/01/15 09:23:16;;;;;;;17.70;7.40;;;0.20;99.90;;;;;;5012250;28;20479;-75
2022/01/15 09:25:42;;;;;;;16.70;7.13;;;0.20;99.90;;;;;;5030981;28;20022;-74
2022/01/15 09:30:53;;;;;;;19.00;6.25;;;0.10;99.90;;;;;;5031230;28;20091;-74
2022/01/15 09:33:18;;;;;;;27.63;10.00;;;0.10;99.90;;;;;;5030814;28;20021;-75
2022/01/15 09:35:44;;;;;;;36.13;16.80;;;0.10;99.90;;;;;;5030939;28;20100;-75
2022/01/15 09:38:10;;;;;;;23.25;9.68;;;0.10;99.90;;;;;;5030917;28;20117;-74
2022/01/15 09:40:38;;;;;;;22.48;9.07;;;0.20;99.90;;;;;;5013231;28;20025;-74
2022/01/15 09:43:04;;;;;;;82.38;33.70;;;0.20;99.90;;;;;;5013837;28;20053;-76
2022/01/15 09:45:30;;;;;;;38.15;15.57;;;0.30;99.90;;;;;;5013251;28;20060;-74
2022/01/15 09:48:00;;;;;;;12.38;5.78;;;0.40;99.90;;;;;;5030371;28;20029;-74
2022/01/15 09:50:29;;;;;;;17.25;10.52;;;0.40;99.90;;;;;;5030720;28;20024;-75
2022/01/15 09:52:56;;;;;;;20.58;7.85;;;0.50;99.90;;;;;;5031030;28;20045;-74
2022/01/15 09:55:23;;;;;;;15.18;6.78;;;0.50;99.90;;;;;;5030958;28;20476;-74
2022/01/15 09:57:50;;;;;;;16.83;5.25;;;0.60;99.90;;;;;;5030838;28;20504;-74
2022/01/15 10:00:18;;;;;;;15.98;5.80;;;0.70;99.90;;;;;;5030785;28;20033;-74
2022/01/15 10:02:46;;;;;;;12.80;4.93;;;0.70;99.90;;;;;;5030393;28;20061;-74
2022/01/15 10:05:13;;;;;;;14.15;5.82;;;0.70;99.90;;;;;;5031019;28;20033;-74
2022/01/15 10:07:57;;;;;;;12.70;5.70;;;0.80;99.90;;;;;;5030825;28;20071;-74
2022/01/15 10:10:24;;;;;;;10.93;5.25;;;0.80;99.50;;;;;;5030776;28;20028;-74
2022/01/15 10:12:50;;;;;;;17.13;6.35;;;0.90;99.90;;;;;;5031201;28;20487;-75
2022/01/15 10:15:17;;;;;;;23.05;7.10;;;0.90;99.90;;;;;;5030911;28;20045;-75
2022/01/15 10:17:43;;;;;;;18.77;7.13;;;1.00;99.90;;;;;;5030151;28;20034;-75
2022/01/15 10:20:14;;;;;;;24.60;13.68;;;1.00;99.90;;;;;;5013140;28;20502;-74
2022/01/15 10:22:42;;;;;;;20.27;9.20;;;1.10;99.40;;;;;;5030777;28;20049;-74
2022/01/15 10:25:13;;;;;;;20.42;9.93;;;1.10;99.90;;;;;;5030626;28;20108;-74
2022/01/15 10:27:41;;;;;;;74.30;31.17;;;1.20;97.80;;;;;;5031501;28;20025;-74
2022/01/15 10:30:10;;;;;;;54.67;26.27;;;1.20;96.60;;;;;;5034317;28;20017;-74
2022/01/15 10:32:53;;;;;;;18.08;7.78;;;1.30;96.70;;;;;;5034158;28;20025;-74
2022/01/15 10:35:19;;;;;;;81.47;36.17;;;1.30;92.90;;;;;;5034399;28;20021;-75
2022/01/15 10:37:47;;;;;;;22.55;10.15;;;1.30;92.80;;;;;;5016305;28;20116;-74
2022/01/15 10:40:14;;;;;;;31.23;11.65;;;1.40;93.80;;;;;;5016127;28;20637;-74
2022/01/15 10:42:40;;;;;;;8.68;5.25;;;1.40;92.70;;;;;;5016416;28;20116;-74
2022/01/15 10:45:12;;;;;;;17.45;7.00;;;1.50;88.00;;;;;;5034226;28;20034;-74
2022/01/15 10:47:47;;;;;;;19.40;12.95;;;1.50;89.90;;;;;;5029285;28;20476;-75
2022/01/15 10:50:39;;;;;;;17.98;8.73;;;1.50;84.40;;;;;;5015243;28;20471;-74
2022/01/15 10:53:11;;;;;;;24.80;7.05;;;1.60;87.90;;;;;;5011358;28;20040;-75
2022/01/15 10:55:38;;;;;;;10.53;5.20;;;1.70;86.40;;;;;;5021255;28;20434;-75
2022/01/15 10:58:06;;;;;;;15.63;5.28;;;1.70;83.10;;;;;;5015476;28;20059;-75
2022/01/15 11:00:41;;;;;;;16.55;6.10;;;1.80;83.20;;;;;;5030354;28;20024;-75
2022/01/15 11:03:12;;;;;;;10.70;4.93;;;1.80;83.40;;;;;;5030247;28;20037;-76
2022/01/15 11:05:52;;;;;;;13.15;5.47;;;1.80;83.60;;;;;;5032485;28;20056;-75
2022/01/15 11:08:28;;;;;;;13.05;5.82;;;1.90;81.90;;;;;;5032869;28;20106;-75
2022/01/15 11:10:56;;;;;;;13.95;4.75;;;1.90;80.30;;;;;;5033650;28;20017;-75
2022/01/15 11:13:22;;;;;;;15.55;4.80;;;1.90;77.60;;;;;;5032332;28;20025;-75
2022/01/15 11:15:49;;;;;;;11.85;4.88;;;1.90;77.60;;;;;;5033198;28;20022;-75
2022/01/15 11:18:24;;;;;;;9.05;4.15;;;2.00;78.10;;;;;;5033478;28;20506;-75
2022/01/15 11:20:59;;;;;;;12.25;5.60;;;2.00;77.40;;;;;;5033536;28;20088;-75
2022/01/15 11:23:27;;;;;;;10.77;4.63;;;2.10;80.10;;;;;;5033616;28;20364;-76
2022/01/15 11:25:54;;;;;;;7.15;3.55;;;2.00;75.60;;;;;;5031891;28;20132;-75
2022/01/15 11:28:23;;;;;;;9.95;3.97;;;1.90;74.60;;;;;;5033339;28;20108;-76
2022/01/15 11:30:54;;;;;;;13.82;5.10;;;1.90;75.30;;;;;;5032830;28;20103;-75
2022/01/15 11:33:34;;;;;;;16.17;4.32;;;1.90;74.70;;;;;;5033727;28;20021;-75
2022/01/15 11:36:01;;;;;;;10.95;3.90;;;2.00;75.20;;;;;;5033269;28;20069;-75
2022/01/15 11:38:50;;;;;;;10.32;4.70;;;1.90;71.40;;;;;;5031324;28;20037;-75
2022/01/15 11:41:27;;;;;;;15.60;4.80;;;2.00;74.10;;;;;;5033432;28;20014;-75
2022/01/15 11:44:08;;;;;;;58.92;26.92;;;2.10;74.40;;;;;;5033024;28;20148;-75
2022/01/15 11:46:33;;;;;;;63.58;24.45;;;2.00;71.40;;;;;;5031896;28;20112;-75
2022/01/15 11:49:24;;;;;;;66.25;27.17;;;2.00;70.80;;;;;;5032573;28;20300;-75
2022/01/15 11:52:10;;;;;;;236.95;99.32;;;2.10;73.60;;;;;;5031077;28;20057;-75
2022/01/15 11:54:36;;;;;;;305.92;125.05;;;2.10;71.60;;;;;;5031612;28;20048;-75
2022/01/15 11:57:04;;;;;;;173.55;68.43;;;2.10;71.60;;;;;;5032871;28;20053;-75
2022/01/15 11:59:29;;;;;;;61.60;20.73;;;2.10;72.80;;;;;;5015000;28;20040;-75
2022/01/15 12:02:01;;;;;;;217.68;71.63;;;2.10;71.80;;;;;;5047948;28;20025;-76
2022/01/15 12:04:34;;;;;;;36.97;14.77;;;2.20;73.40;;;;;;5015033;28;20112;-76
2022/01/15 12:07:03;;;;;;;128.93;41.63;;;2.20;72.80;;;;;;5048087;28;20060;-75
2022/01/15 12:09:43;;;;;;;164.02;60.55;;;2.20;72.10;;;;;;5048047;28;20026;-75
2022/01/15 12:12:18;;;;;;;227.73;80.43;;;2.20;71.00;;;;;;5048042;28;20025;-75
2022/01/15 12:14:51;;;;;;;256.25;84.88;;;2.30;72.10;;;;;;5047709;28;20033;-75
2022/01/15 12:17:31;;;;;;;54.67;17.17;;;2.20;70.50;;;;;;5031934;28;20176;-75
2022/01/15 12:19:58;;;;;;;95.55;23.67;;;2.20;71.60;;;;;;5032313;28;20026;-75
2022/01/15 12:22:37;;;;;;;120.22;29.05;;;2.10;68.70;;;;;;5032344;28;20032;-76
2022/01/15 12:25:04;;;;;;;78.97;21.38;;;2.10;70.20;;;;;;5032316;28;20022;-75
2022/01/15 12:27:31;;;;;;;117.68;33.65;;;2.10;69.80;;;;;;5032232;28;20048;-75
2022/01/15 12:30:18;;;;;;;296.95;107.63;;;2.20;69.90;;;;;;5032493;28;20076;-75
2022/01/15 12:32:48;;;;;;;220.63;76.43;;;2.20;70.40;;;;;;5048192;28;20021;-75
2022/01/15 12:35:22;;;;;;;479.60;182.23;;;2.20;71.00;;;;;;5031746;28;20032;-75
2022/01/15 12:38:05;;;;;;;80.28;20.23;;;2.20;71.60;;;;;;5016383;28;20487;-76
2022/01/15 12:40:40;;;;;;;49.83;13.27;;;2.20;69.10;;;;;;5015423;28;20128;-75
2022/01/15 12:43:32;;;;;;;45.05;12.15;;;2.20;67.70;;;;;;5032980;28;20021;-75
2022/01/15 12:46:01;;;;;;;97.38;25.35;;;2.10;68.20;;;;;;5030324;28;20036;-75
2022/01/15 12:48:32;;;;;;;20.38;6.65;;;2.20;70.70;;;;;;5032401;28;20029;-75
2022/01/15 12:51:06;;;;;;;51.45;14.27;;;2.20;70.60;;;;;;5033545;28;20480;-75
2022/01/15 12:53:38;;;;;;;16.88;5.75;;;2.20;70.80;;;;;;5036656;28;20017;-76
2022/01/15 12:56:08;;;;;;;126.38;47.72;;;2.20;70.10;;;;;;5036996;28;20475;-75
2022/01/15 12:58:34;;;;;;;61.25;24.05;;;2.30;70.00;;;;;;5036615;28;20071;-75